sensor_id;sensor_type;location;lat;lon;timestamp;pressure;altitude;pressure_sealevel;temperature;humidity
6024;BME280;3040;42.654;23.296;2023-05-22T00:02:08;94015.25;;;16.04;74.73
6024;BME280;3040;42.654;23.296;2023-05-22T00:04:35;94012.78;;;15.67;77.31
6024;BME280;3040;42.654;23.296;2023-05-22T00:07:04;94020.38;;;15.54;77.68
6024;BME280;3040;42.654;23.296;2023-05-22T00:09:31;94014.81;;;15.29;80.15
6024;BME280;3040;42.654;23.296;2023-05-22T00:11:57;94006.63;;;15.12;80.73
6024;BME280;3040;42.654;23.296;2023-05-22T00:14:24;94012.47;;;15.24;80.50
6024;BME280;3040;42.654;23.296;2023-05-22T00:16:51;93923.00;;;14.37;81.35
6024;BME280;3040;42.654;23.296;2023-05-22T00:19:19;94008.31;;;14.83;83.08
6024;BME280;3040;42.654;23.296;2023-05-22T00:21:47;94000.28;;;14.83;82.99
6024;BME280;3040;42.654;23.296;2023-05-22T00:24:17;94015.41;;;15.08;82.61
6024;BME280;3040;42.654;23.296;2023-05-22T00:26:44;94016.22;;;15.16;82.66
6024;BME280;3040;42.654;23.296;2023-05-22T00:29:11;94012.34;;;15.10;81.11
6024;BME280;3040;42.654;23.296;2023-05-22T00:31:38;94009.66;;;15.06;82.33
6024;BME280;3040;42.654;23.296;2023-05-22T00:34:05;94017.00;;;15.17;81.44
6024;BME280;3040;42.654;23.296;2023-05-22T00:36:31;93984.84;;;15.17;81.36
6024;BME280;3040;42.654;23.296;2023-05-22T00:38:58;94015.66;;;15.44;81.78
6024;BME280;3040;42.654;23.296;2023-05-22T00:41:26;94015.97;;;15.32;80.64
6024;BME280;3040;42.654;23.296;2023-05-22T00:43:53;94016.38;;;15.34;81.22
6024;BME280;3040;42.654;23.296;2023-05-22T00:46:20;94006.09;;;15.43;80.07
6024;BME280;3040;42.654;23.296;2023-05-22T00:48:48;94021.56;;;15.60;80.25
6024;BME280;3040;42.654;23.296;2023-05-22T00:51:17;94016.31;;;15.81;79.50
6024;BME280;3040;42.654;23.296;2023-05-22T00:53:45;94002.13;;;15.77;79.06
6024;BME280;3040;42.654;23.296;2023-05-22T00:56:12;94022.97;;;16.09;78.35
6024;BME280;3040;42.654;23.296;2023-05-22T00:58:42;94019.56;;;16.15;77.81
6024;BME280;3040;42.654;23.296;2023-05-22T01:01:10;94019.56;;;16.19;77.48
6024;BME280;3040;42.654;23.296;2023-05-22T01:03:38;94014.94;;;16.09;77.66
6024;BME280;3040;42.654;23.296;2023-05-22T01:06:09;94020.34;;;16.19;77.60
6024;BME280;3040;42.654;23.296;2023-05-22T01:08:36;94010.53;;;15.79;78.56
6024;BME280;3040;42.654;23.296;2023-05-22T01:11:07;94014.44;;;15.93;78.53
6024;BME280;3040;42.654;23.296;2023-05-22T01:13:50;94014.41;;;15.85;78.08
6024;BME280;3040;42.654;23.296;2023-05-22T01:16:25;94012.84;;;15.77;78.46
6024;BME280;3040;42.654;23.296;2023-05-22T01:18:59;94005.56;;;15.78;79.19
6024;BME280;3040;42.654;23.296;2023-05-22T01:21:35;94012.72;;;15.56;79.78
6024;BME280;3040;42.654;23.296;2023-05-22T01:24:26;94015.78;;;15.55;81.05
6024;BME280;3040;42.654;23.296;2023-05-22T01:27:33;94010.84;;;15.60;80.01
6024;BME280;3040;42.654;23.296;2023-05-22T01:30:16;94004.78;;;15.74;79.51
6024;BME280;3040;42.654;23.296;2023-05-22T01:32:46;94008.63;;;15.80;79.62
6024;BME280;3040;42.654;23.296;2023-05-22T01:35:15;94007.53;;;15.84;78.89
6024;BME280;3040;42.654;23.296;2023-05-22T01:37:43;94007.53;;;15.84;78.74
6024;BME280;3040;42.654;23.296;2023-05-22T01:40:11;94003.56;;;15.64;80.08
6024;BME280;3040;42.654;23.296;2023-05-22T01:42:39;93998.94;;;15.61;80.24
6024;BME280;3040;42.654;23.296;2023-05-22T01:45:08;93883.69;;;14.92;79.80
6024;BME280;3040;42.654;23.296;2023-05-22T01:47:35;93997.44;;;15.67;79.87
6024;BME280;3040;42.654;23.296;2023-05-22T01:50:05;94000.59;;;15.76;78.42
6024;BME280;3040;42.654;23.296;2023-05-22T01:52:38;93999.13;;;15.90;78.71
6024;BME280;3040;42.654;23.296;2023-05-22T01:55:10;93999.16;;;16.00;77.22
6024;BME280;3040;42.654;23.296;2023-05-22T01:57:43;93948.50;;;15.77;77.44
6024;BME280;3040;42.654;23.296;2023-05-22T02:00:14;93908.56;;;15.55;76.18
6024;BME280;3040;42.654;23.296;2023-05-22T02:02:43;93997.69;;;16.17;76.30
6024;BME280;3040;42.654;23.296;2023-05-22T02:05:16;93993.88;;;16.18;76.48
6024;BME280;3040;42.654;23.296;2023-05-22T02:07:44;93990.72;;;15.91;77.07
6024;BME280;3040;42.654;23.296;2023-05-22T02:10:13;93998.28;;;15.75;78.15
6024;BME280;3040;42.654;23.296;2023-05-22T02:12:40;94000.53;;;15.69;78.91
6024;BME280;3040;42.654;23.296;2023-05-22T02:15:07;93980.50;;;15.49;78.18
6024;BME280;3040;42.654;23.296;2023-05-22T02:17:36;93905.81;;;14.82;79.35
6024;BME280;3040;42.654;23.296;2023-05-22T02:20:06;93998.16;;;15.57;78.67
6024;BME280;3040;42.654;23.296;2023-05-22T02:22:40;93998.94;;;15.54;78.40
6024;BME280;3040;42.654;23.296;2023-05-22T02:25:08;93998.44;;;15.45;79.09
6024;BME280;3040;42.654;23.296;2023-05-22T02:27:39;93993.44;;;15.40;79.67
6024;BME280;3040;42.654;23.296;2023-05-22T02:30:07;94007.34;;;15.53;79.68
6024;BME280;3040;42.654;23.296;2023-05-22T02:32:34;94004.22;;;15.51;78.75
6024;BME280;3040;42.654;23.296;2023-05-22T02:35:01;93987.34;;;15.43;78.66
6024;BME280;3040;42.654;23.296;2023-05-22T02:37:28;94002.47;;;15.21;79.92
6024;BME280;3040;42.654;23.296;2023-05-22T02:39:57;93996.41;;;15.28;79.87
6024;BME280;3040;42.654;23.296;2023-05-22T02:42:23;93987.66;;;15.31;79.47
6024;BME280;3040;42.654;23.296;2023-05-22T02:44:51;93935.28;;;14.89;80.07
6024;BME280;3040;42.654;23.296;2023-05-22T02:47:17;93975.69;;;15.18;79.94
6024;BME280;3040;42.654;23.296;2023-05-22T02:49:44;93995.59;;;15.20;79.74
6024;BME280;3040;42.654;23.296;2023-05-22T02:52:11;93994.84;;;15.23;79.23
6024;BME280;3040;42.654;23.296;2023-05-22T02:54:38;93988.72;;;15.23;79.58
6024;BME280;3040;42.654;23.296;2023-05-22T02:57:06;93991.47;;;15.30;78.19
6024;BME280;3040;42.654;23.296;2023-05-22T02:59:33;93985.25;;;15.19;78.76
6024;BME280;3040;42.654;23.296;2023-05-22T03:02:01;93983.00;;;15.28;78.20
6024;BME280;3040;42.654;23.296;2023-05-22T03:04:28;93991.06;;;15.28;78.19
6024;BME280;3040;42.654;23.296;2023-05-22T03:06:54;93872.63;;;14.46;77.99
6024;BME280;3040;42.654;23.296;2023-05-22T03:09:21;93989.50;;;15.27;78.52
6024;BME280;3040;42.654;23.296;2023-05-22T03:11:48;93991.41;;;15.23;79.04
6024;BME280;3040;42.654;23.296;2023-05-22T03:14:16;93991.41;;;15.23;78.30
6024;BME280;3040;42.654;23.296;2023-05-22T03:16:43;93994.16;;;15.33;78.21
6024;BME280;3040;42.654;23.296;2023-05-22T03:19:13;93996.84;;;15.33;77.79
6024;BME280;3040;42.654;23.296;2023-05-22T03:21:40;94002.53;;;15.25;77.37
6024;BME280;3040;42.654;23.296;2023-05-22T03:24:08;93998.66;;;15.22;77.98
6024;BME280;3040;42.654;23.296;2023-05-22T03:26:35;93988.59;;;15.05;79.32
6024;BME280;3040;42.654;23.296;2023-05-22T03:29:02;93993.19;;;15.08;80.64
6024;BME280;3040;42.654;23.296;2023-05-22T03:31:32;93992.72;;;14.95;81.14
6024;BME280;3040;42.654;23.296;2023-05-22T03:33:59;93986.28;;;15.03;80.23
6024;BME280;3040;42.654;23.296;2023-05-22T03:36:29;93994.69;;;15.02;81.29
6024;BME280;3040;42.654;23.296;2023-05-22T03:38:58;93995.72;;;14.87;82.04
6024;BME280;3040;42.654;23.296;2023-05-22T03:41:25;93993.91;;;15.01;81.84
6024;BME280;3040;42.654;23.296;2023-05-22T03:43:52;93991.75;;;15.18;81.46
6024;BME280;3040;42.654;23.296;2023-05-22T03:46:18;93995.72;;;15.38;80.12
6024;BME280;3040;42.654;23.296;2023-05-22T03:48:47;93965.09;;;15.39;79.61
6024;BME280;3040;42.654;23.296;2023-05-22T03:51:14;93995.94;;;15.66;78.74
6024;BME280;3040;42.654;23.296;2023-05-22T03:53:40;93994.81;;;15.74;78.56
6024;BME280;3040;42.654;23.296;2023-05-22T03:56:07;94001.00;;;15.85;78.55
6024;BME280;3040;42.654;23.296;2023-05-22T03:58:34;93996.81;;;15.92;77.75
6024;BME280;3040;42.654;23.296;2023-05-22T04:01:01;93973.78;;;15.80;78.03
6024;BME280;3040;42.654;23.296;2023-05-22T04:03:28;94002.19;;;15.92;77.92
6024;BME280;3040;42.654;23.296;2023-05-22T04:05:56;93999.16;;;15.97;78.29
6024;BME280;3040;42.654;23.296;2023-05-22T04:08:23;93901.56;;;15.36;77.98
6024;BME280;3040;42.654;23.296;2023-05-22T04:10:49;94004.56;;;16.11;77.71
6024;BME280;3040;42.654;23.296;2023-05-22T04:13:18;94000.00;;;16.15;77.37
6024;BME280;3040;42.654;23.296;2023-05-22T04:15:45;94005.75;;;16.17;77.76
6024;BME280;3040;42.654;23.296;2023-05-22T04:18:12;94005.00;;;16.20;77.53
6024;BME280;3040;42.654;23.296;2023-05-22T04:20:39;94011.50;;;16.19;78.11
6024;BME280;3040;42.654;23.296;2023-05-22T04:23:08;94004.44;;;15.82;78.07
6024;BME280;3040;42.654;23.296;2023-05-22T04:25:35;94002.97;;;15.96;79.58
6024;BME280;3040;42.654;23.296;2023-05-22T04:28:02;94017.97;;;16.11;79.01
6024;BME280;3040;42.654;23.296;2023-05-22T04:30:29;93986.16;;;16.06;78.46
6024;BME280;3040;42.654;23.296;2023-05-22T04:32:58;94008.41;;;16.10;78.25
6024;BME280;3040;42.654;23.296;2023-05-22T04:35:25;94012.66;;;16.18;77.99
6024;BME280;3040;42.654;23.296;2023-05-22T04:37:54;94014.59;;;16.21;78.59
6024;BME280;3040;42.654;23.296;2023-05-22T04:40:22;93998.91;;;16.26;79.02
6024;BME280;3040;42.654;23.296;2023-05-22T04:42:50;94015.81;;;16.41;79.10
6024;BME280;3040;42.654;23.296;2023-05-22T04:45:19;94023.13;;;16.55;79.03
6024;BME280;3040;42.654;23.296;2023-05-22T04:47:49;93996.63;;;16.46;78.85
6024;BME280;3040;42.654;23.296;2023-05-22T04:50:16;94015.91;;;16.73;78.84
6024;BME280;3040;42.654;23.296;2023-05-22T04:52:45;94017.09;;;16.76;78.16
6024;BME280;3040;42.654;23.296;2023-05-22T04:55:11;94015.56;;;16.92;78.72
6024;BME280;3040;42.654;23.296;2023-05-22T04:57:40;94015.97;;;17.05;78.27
6024;BME280;3040;42.654;23.296;2023-05-22T05:00:09;94023.25;;;17.08;75.49
6024;BME280;3040;42.654;23.296;2023-05-22T05:02:38;94020.16;;;16.95;74.72
6024;BME280;3040;42.654;23.296;2023-05-22T05:05:06;94017.88;;;16.87;75.19
6024;BME280;3040;42.654;23.296;2023-05-22T05:07:36;94022.06;;;16.88;75.63
6024;BME280;3040;42.654;23.296;2023-05-22T05:10:03;94025.56;;;16.99;75.44
6024;BME280;3040;42.654;23.296;2023-05-22T05:12:31;94020.91;;;16.78;75.29
6024;BME280;3040;42.654;23.296;2023-05-22T05:14:59;94026.22;;;16.57;76.08
6024;BME280;3040;42.654;23.296;2023-05-22T05:17:26;94026.31;;;16.82;76.41
6024;BME280;3040;42.654;23.296;2023-05-22T05:19:53;94020.56;;;17.01;75.53
6024;BME280;3040;42.654;23.296;2023-05-22T05:22:20;94027.09;;;17.07;74.28
6024;BME280;3040;42.654;23.296;2023-05-22T05:24:47;94030.94;;;17.38;74.04
6024;BME280;3040;42.654;23.296;2023-05-22T05:27:14;94032.50;;;17.28;72.55
6024;BME280;3040;42.654;23.296;2023-05-22T05:29:40;94029.41;;;17.33;72.68
6024;BME280;3040;42.654;23.296;2023-05-22T05:32:09;94028.25;;;17.59;73.22
6024;BME280;3040;42.654;23.296;2023-05-22T05:34:37;94039.78;;;17.81;71.72
6024;BME280;3040;42.654;23.296;2023-05-22T05:37:04;94041.25;;;18.07;70.33
6024;BME280;3040;42.654;23.296;2023-05-22T05:39:31;94042.34;;;18.23;68.20
6024;BME280;3040;42.654;23.296;2023-05-22T05:41:58;94035.41;;;18.29;67.02
6024;BME280;3040;42.654;23.296;2023-05-22T05:44:25;94037.69;;;18.38;66.29
6024;BME280;3040;42.654;23.296;2023-05-22T05:46:52;94042.25;;;18.45;66.68
6024;BME280;3040;42.654;23.296;2023-05-22T05:49:20;94045.28;;;18.64;67.18
6024;BME280;3040;42.654;23.296;2023-05-22T05:51:47;94038.69;;;18.76;66.62
6024;BME280;3040;42.654;23.296;2023-05-22T05:54:14;94038.31;;;18.78;66.03
6024;BME280;3040;42.654;23.296;2023-05-22T05:56:41;94039.03;;;18.85;65.55
6024;BME280;3040;42.654;23.296;2023-05-22T05:59:08;94045.22;;;18.75;64.54
6024;BME280;3040;42.654;23.296;2023-05-22T06:01:35;94042.09;;;18.87;63.60
6024;BME280;3040;42.654;23.296;2023-05-22T06:04:03;94044.31;;;18.99;63.37
6024;BME280;3040;42.654;23.296;2023-05-22T06:06:31;94039.38;;;18.87;63.87
6024;BME280;3040;42.654;23.296;2023-05-22T06:09:00;94042.81;;;18.95;62.33
6024;BME280;3040;42.654;23.296;2023-05-22T06:11:27;94059.72;;;19.02;63.74
6024;BME280;3040;42.654;23.296;2023-05-22T06:13:54;94040.00;;;19.13;62.03
6024;BME280;3040;42.654;23.296;2023-05-22T06:16:21;94031.56;;;19.10;62.35
6024;BME280;3040;42.654;23.296;2023-05-22T06:18:48;94041.50;;;19.21;61.75
6024;BME280;3040;42.654;23.296;2023-05-22T06:21:17;94046.78;;;19.35;61.35
6024;BME280;3040;42.654;23.296;2023-05-22T06:23:47;94041.31;;;19.49;61.50
6024;BME280;3040;42.654;23.296;2023-05-22T06:26:15;94036.25;;;19.55;62.16
6024;BME280;3040;42.654;23.296;2023-05-22T06:28:42;94037.00;;;19.55;62.49
6024;BME280;3040;42.654;23.296;2023-05-22T06:31:09;94033.25;;;19.45;62.09
6024;BME280;3040;42.654;23.296;2023-05-22T06:33:36;94033.94;;;19.53;62.22
6024;BME280;3040;42.654;23.296;2023-05-22T06:36:05;94039.66;;;19.62;61.56
6024;BME280;3040;42.654;23.296;2023-05-22T06:38:33;94045.63;;;19.84;61.85
6024;BME280;3040;42.654;23.296;2023-05-22T06:41:03;94041.88;;;20.12;59.41
6024;BME280;3040;42.654;23.296;2023-05-22T06:43:30;94035.47;;;20.36;57.15
6024;BME280;3040;42.654;23.296;2023-05-22T06:45:57;94036.03;;;20.54;57.61
6024;BME280;3040;42.654;23.296;2023-05-22T06:48:24;94040.59;;;20.61;55.16
6024;BME280;3040;42.654;23.296;2023-05-22T06:50:51;94043.13;;;20.41;53.09
6024;BME280;3040;42.654;23.296;2023-05-22T06:53:18;94026.88;;;20.45;51.38
6024;BME280;3040;42.654;23.296;2023-05-22T06:55:45;94034.81;;;20.25;51.21
6024;BME280;3040;42.654;23.296;2023-05-22T06:58:13;94034.50;;;20.16;52.96
6024;BME280;3040;42.654;23.296;2023-05-22T07:00:40;94010.84;;;20.27;51.54
6024;BME280;3040;42.654;23.296;2023-05-22T07:03:07;94033.22;;;20.27;54.44
6024;BME280;3040;42.654;23.296;2023-05-22T07:05:33;94039.22;;;20.46;52.40
6024;BME280;3040;42.654;23.296;2023-05-22T07:08:01;94046.63;;;20.68;50.45
6024;BME280;3040;42.654;23.296;2023-05-22T07:10:27;94042.94;;;20.86;51.02
6024;BME280;3040;42.654;23.296;2023-05-22T07:12:54;94025.03;;;21.26;51.84
6024;BME280;3040;42.654;23.296;2023-05-22T07:15:23;94032.06;;;21.70;51.67
6024;BME280;3040;42.654;23.296;2023-05-22T07:17:50;94030.16;;;21.90;50.37
6024;BME280;3040;42.654;23.296;2023-05-22T07:20:17;94030.63;;;21.85;47.66
6024;BME280;3040;42.654;23.296;2023-05-22T07:22:44;94035.88;;;21.72;47.88
6024;BME280;3040;42.654;23.296;2023-05-22T07:25:10;94031.91;;;21.77;48.40
6024;BME280;3040;42.654;23.296;2023-05-22T07:27:37;94031.59;;;21.94;47.87
6024;BME280;3040;42.654;23.296;2023-05-22T07:30:05;94032.34;;;21.99;49.17
6024;BME280;3040;42.654;23.296;2023-05-22T07:32:34;94035.06;;;22.18;47.80
6024;BME280;3040;42.654;23.296;2023-05-22T07:35:00;94033.41;;;22.24;49.03
6024;BME280;3040;42.654;23.296;2023-05-22T07:37:27;94031.97;;;22.40;47.27
6024;BME280;3040;42.654;23.296;2023-05-22T07:39:54;94030.78;;;22.21;46.98
6024;BME280;3040;42.654;23.296;2023-05-22T07:42:21;94028.97;;;22.14;48.61
6024;BME280;3040;42.654;23.296;2023-05-22T07:44:48;94032.59;;;22.27;49.20
6024;BME280;3040;42.654;23.296;2023-05-22T07:47:14;94025.28;;;22.44;50.29
6024;BME280;3040;42.654;23.296;2023-05-22T07:49:43;94029.34;;;22.76;48.53
6024;BME280;3040;42.654;23.296;2023-05-22T07:52:10;94021.97;;;22.76;47.32
6024;BME280;3040;42.654;23.296;2023-05-22T07:54:36;94022.84;;;22.89;47.84
6024;BME280;3040;42.654;23.296;2023-05-22T07:57:03;94018.81;;;22.58;47.74
6024;BME280;3040;42.654;23.296;2023-05-22T07:59:32;94020.50;;;22.71;49.00
6024;BME280;3040;42.654;23.296;2023-05-22T08:02:00;94030.38;;;22.82;48.78
6024;BME280;3040;42.654;23.296;2023-05-22T08:04:27;94020.13;;;22.89;46.97
6024;BME280;3040;42.654;23.296;2023-05-22T08:06:56;94026.88;;;22.81;45.84
6024;BME280;3040;42.654;23.296;2023-05-22T08:09:23;94032.50;;;22.70;46.49
6024;BME280;3040;42.654;23.296;2023-05-22T08:11:50;94029.41;;;23.08;48.46
6024;BME280;3040;42.654;23.296;2023-05-22T08:14:17;94024.13;;;23.53;47.20
6024;BME280;3040;42.654;23.296;2023-05-22T08:16:44;94013.94;;;23.73;45.38
6024;BME280;3040;42.654;23.296;2023-05-22T08:19:10;94022.81;;;22.53;44.19
6024;BME280;3040;42.654;23.296;2023-05-22T08:21:37;94022.84;;;22.50;45.62
6024;BME280;3040;42.654;23.296;2023-05-22T08:24:06;94026.31;;;22.70;48.08
6024;BME280;3040;42.654;23.296;2023-05-22T08:26:33;94026.09;;;23.00;45.71
6024;BME280;3040;42.654;23.296;2023-05-22T08:29:00;94029.84;;;23.23;46.24
6024;BME280;3040;42.654;23.296;2023-05-22T08:31:27;94031.00;;;23.05;46.03
6024;BME280;3040;42.654;23.296;2023-05-22T08:33:54;94030.88;;;23.45;44.69
6024;BME280;3040;42.654;23.296;2023-05-22T08:36:26;94026.66;;;23.60;44.23
6024;BME280;3040;42.654;23.296;2023-05-22T08:38:54;94017.94;;;23.69;44.17
6024;BME280;3040;42.654;23.296;2023-05-22T08:41:22;94019.41;;;23.05;44.28
6024;BME280;3040;42.654;23.296;2023-05-22T08:43:49;94017.94;;;23.52;44.20
6024;BME280;3040;42.654;23.296;2023-05-22T08:46:17;94015.28;;;23.81;42.62
6024;BME280;3040;42.654;23.296;2023-05-22T08:48:44;94001.72;;;24.26;42.56
6024;BME280;3040;42.654;23.296;2023-05-22T08:51:14;94013.69;;;24.70;41.23
6024;BME280;3040;42.654;23.296;2023-05-22T08:53:44;94014.50;;;24.96;38.02
6024;BME280;3040;42.654;23.296;2023-05-22T08:56:12;94016.25;;;24.61;38.19
6024;BME280;3040;42.654;23.296;2023-05-22T08:58:40;93999.13;;;24.77;40.27
6024;BME280;3040;42.654;23.296;2023-05-22T09:01:07;94007.59;;;24.38;36.23
6024;BME280;3040;42.654;23.296;2023-05-22T09:03:35;94003.50;;;24.17;35.90
6024;BME280;3040;42.654;23.296;2023-05-22T09:06:02;94008.44;;;24.63;36.55
6024;BME280;3040;42.654;23.296;2023-05-22T09:08:34;94002.06;;;24.83;36.28
6024;BME280;3040;42.654;23.296;2023-05-22T09:11:02;94013.22;;;24.59;36.81
6024;BME280;3040;42.654;23.296;2023-05-22T09:13:30;93995.06;;;23.99;38.46
6024;BME280;3040;42.654;23.296;2023-05-22T09:15:59;94005.84;;;24.31;39.98
6024;BME280;3040;42.654;23.296;2023-05-22T09:18:33;94008.25;;;24.70;38.08
6024;BME280;3040;42.654;23.296;2023-05-22T09:21:01;94006.34;;;24.55;38.16
6024;BME280;3040;42.654;23.296;2023-05-22T09:23:28;93999.22;;;24.32;36.70
6024;BME280;3040;42.654;23.296;2023-05-22T09:25:56;93998.47;;;24.31;36.63
6024;BME280;3040;42.654;23.296;2023-05-22T09:28:23;93987.78;;;24.79;36.10
6024;BME280;3040;42.654;23.296;2023-05-22T09:30:51;93996.75;;;24.92;33.56
6024;BME280;3040;42.654;23.296;2023-05-22T09:33:21;93995.41;;;24.84;33.94
6024;BME280;3040;42.654;23.296;2023-05-22T09:35:50;93991.47;;;24.59;34.16
6024;BME280;3040;42.654;23.296;2023-05-22T09:38:18;93996.91;;;24.02;35.52
6024;BME280;3040;42.654;23.296;2023-05-22T09:40:45;94005.53;;;24.13;36.45
6024;BME280;3040;42.654;23.296;2023-05-22T09:43:16;94002.47;;;23.66;35.85
6024;BME280;3040;42.654;23.296;2023-05-22T09:45:43;94004.00;;;23.67;37.03
6024;BME280;3040;42.654;23.296;2023-05-22T09:48:10;94007.41;;;23.71;38.39
6024;BME280;3040;42.654;23.296;2023-05-22T09:50:39;94016.56;;;23.61;38.01
6024;BME280;3040;42.654;23.296;2023-05-22T09:53:07;94009.09;;;23.65;36.86
6024;BME280;3040;42.654;23.296;2023-05-22T09:55:35;93996.56;;;23.55;38.95
6024;BME280;3040;42.654;23.296;2023-05-22T09:58:05;94007.31;;;23.42;39.82
6024;BME280;3040;42.654;23.296;2023-05-22T10:00:34;94005.63;;;23.32;40.50
6024;BME280;3040;42.654;23.296;2023-05-22T10:03:05;94008.66;;;23.34;41.82
6024;BME280;3040;42.654;23.296;2023-05-22T10:05:34;94013.81;;;23.12;43.01
6024;BME280;3040;42.654;23.296;2023-05-22T10:08:09;94007.22;;;23.13;42.44
6024;BME280;3040;42.654;23.296;2023-05-22T10:10:37;94013.66;;;23.19;42.68
6024;BME280;3040;42.654;23.296;2023-05-22T10:13:04;94014.44;;;23.20;44.12
6024;BME280;3040;42.654;23.296;2023-05-22T10:15:31;94018.66;;;23.21;44.75
6024;BME280;3040;42.654;23.296;2023-05-22T10:17:59;94010.19;;;23.35;44.87
6024;BME280;3040;42.654;23.296;2023-05-22T10:20:27;94017.41;;;23.41;44.68
6024;BME280;3040;42.654;23.296;2023-05-22T10:22:54;94016.50;;;23.48;45.53
6024;BME280;3040;42.654;23.296;2023-05-22T10:25:22;93911.81;;;22.98;44.81
6024;BME280;3040;42.654;23.296;2023-05-22T10:27:51;94004.69;;;23.71;44.02
6024;BME280;3040;42.654;23.296;2023-05-22T10:30:25;94013.75;;;23.80;45.18
6024;BME280;3040;42.654;23.296;2023-05-22T10:32:56;94005.88;;;23.86;44.92
6024;BME280;3040;42.654;23.296;2023-05-22T10:35:34;94008.94;;;23.56;44.82
6024;BME280;3040;42.654;23.296;2023-05-22T10:40:55;94025.06;;;22.55;50.92
6024;BME280;3040;42.654;23.296;2023-05-22T10:43:22;94052.28;;;22.08;61.49
6024;BME280;3040;42.654;23.296;2023-05-22T10:46:01;94062.63;;;21.43;68.65
6024;BME280;3040;42.654;23.296;2023-05-22T10:48:29;94040.75;;;21.04;70.73
6024;BME280;3040;42.654;23.296;2023-05-22T10:51:02;94031.25;;;20.65;68.68
6024;BME280;3040;42.654;23.296;2023-05-22T10:53:30;93995.94;;;20.49;66.00
6024;BME280;3040;42.654;23.296;2023-05-22T10:56:08;94032.34;;;20.71;69.25
6024;BME280;3040;42.654;23.296;2023-05-22T10:58:35;94025.59;;;20.83;71.95
6024;BME280;3040;42.654;23.296;2023-05-22T11:01:14;94029.59;;;21.02;62.37
6024;BME280;3040;42.654;23.296;2023-05-22T11:03:55;94028.03;;;20.74;62.80
6024;BME280;3040;42.654;23.296;2023-05-22T11:06:32;94026.31;;;20.87;67.09
6024;BME280;3040;42.654;23.296;2023-05-22T11:09:15;94028.25;;;20.56;66.57
6024;BME280;3040;42.654;23.296;2023-05-22T11:11:44;94024.59;;;20.43;66.98
6024;BME280;3040;42.654;23.296;2023-05-22T11:14:12;94018.94;;;20.27;64.63
6024;BME280;3040;42.654;23.296;2023-05-22T11:16:42;94013.47;;;20.00;62.71
6024;BME280;3040;42.654;23.296;2023-05-22T11:19:09;94004.34;;;20.21;61.86
6024;BME280;3040;42.654;23.296;2023-05-22T11:21:41;94009.00;;;20.54;64.14
6024;BME280;3040;42.654;23.296;2023-05-22T11:24:08;94003.13;;;20.90;64.39
6024;BME280;3040;42.654;23.296;2023-05-22T11:26:35;94014.19;;;20.99;63.74
6024;BME280;3040;42.654;23.296;2023-05-22T11:29:06;94012.16;;;20.49;60.95
6024;BME280;3040;42.654;23.296;2023-05-22T11:31:34;94016.69;;;20.56;60.97
6024;BME280;3040;42.654;23.296;2023-05-22T11:34:01;94029.53;;;20.48;63.18
6024;BME280;3040;42.654;23.296;2023-05-22T11:36:28;94054.41;;;19.91;66.35
6024;BME280;3040;42.654;23.296;2023-05-22T11:38:56;94077.59;;;18.72;68.29
6024;BME280;3040;42.654;23.296;2023-05-22T11:41:24;94080.13;;;17.88;72.89
6024;BME280;3040;42.654;23.296;2023-05-22T11:43:55;94065.50;;;17.39;71.20
6024;BME280;3040;42.654;23.296;2023-05-22T11:46:23;94060.09;;;17.07;74.14
6024;BME280;3040;42.654;23.296;2023-05-22T11:48:51;94067.75;;;16.95;75.92
6024;BME280;3040;42.654;23.296;2023-05-22T11:51:18;94072.34;;;16.84;76.00
6024;BME280;3040;42.654;23.296;2023-05-22T11:53:46;94075.00;;;16.77;79.27
6024;BME280;3040;42.654;23.296;2023-05-22T11:56:13;94074.66;;;16.89;80.27
6024;BME280;3040;42.654;23.296;2023-05-22T11:58:40;94048.53;;;16.79;80.06
6024;BME280;3040;42.654;23.296;2023-05-22T12:01:06;94052.41;;;16.81;79.95
6024;BME280;3040;42.654;23.296;2023-05-22T12:03:35;94072.69;;;16.72;76.54
6024;BME280;3040;42.654;23.296;2023-05-22T12:06:02;94060.78;;;16.62;78.97
6024;BME280;3040;42.654;23.296;2023-05-22T12:08:30;94063.03;;;16.56;77.86
6024;BME280;3040;42.654;23.296;2023-05-22T12:10:57;94048.47;;;16.57;76.73
6024;BME280;3040;42.654;23.296;2023-05-22T12:13:26;94048.81;;;16.52;75.50
6024;BME280;3040;42.654;23.296;2023-05-22T12:15:55;94064.56;;;16.54;75.93
6024;BME280;3040;42.654;23.296;2023-05-22T12:18:24;94057.66;;;16.56;78.28
6024;BME280;3040;42.654;23.296;2023-05-22T12:20:54;94048.41;;;16.43;81.26
6024;BME280;3040;42.654;23.296;2023-05-22T12:23:21;94058.34;;;16.32;80.84
6024;BME280;3040;42.654;23.296;2023-05-22T12:25:56;94034.56;;;16.34;82.50
6024;BME280;3040;42.654;23.296;2023-05-22T12:28:23;94042.63;;;16.41;79.37
6024;BME280;3040;42.654;23.296;2023-05-22T12:30:51;94020.00;;;16.35;80.44
6024;BME280;3040;42.654;23.296;2023-05-22T12:33:19;94040.50;;;16.86;82.00
6024;BME280;3040;42.654;23.296;2023-05-22T12:35:49;94043.97;;;17.18;80.92
6024;BME280;3040;42.654;23.296;2023-05-22T12:38:20;94024.78;;;17.44;82.68
6024;BME280;3040;42.654;23.296;2023-05-22T12:40:47;94033.25;;;17.71;77.08
6024;BME280;3040;42.654;23.296;2023-05-22T12:43:15;94024.38;;;17.85;77.80
6024;BME280;3040;42.654;23.296;2023-05-22T12:45:42;94037.06;;;18.02;75.08
6024;BME280;3040;42.654;23.296;2023-05-22T12:48:08;94036.22;;;18.19;75.17
6024;BME280;3040;42.654;23.296;2023-05-22T12:50:36;94030.72;;;18.48;77.18
6024;BME280;3040;42.654;23.296;2023-05-22T12:53:03;94025.16;;;18.87;75.89
6024;BME280;3040;42.654;23.296;2023-05-22T12:55:31;94031.81;;;19.27;75.58
6024;BME280;3040;42.654;23.296;2023-05-22T12:57:58;94026.56;;;19.61;77.60
6024;BME280;3040;42.654;23.296;2023-05-22T13:00:25;94013.66;;;19.82;76.98
6024;BME280;3040;42.654;23.296;2023-05-22T13:02:52;94004.22;;;19.98;77.05
6024;BME280;3040;42.654;23.296;2023-05-22T13:05:19;94033.88;;;20.39;76.92
6024;BME280;3040;42.654;23.296;2023-05-22T13:07:46;94022.84;;;20.56;74.75
6024;BME280;3040;42.654;23.296;2023-05-22T13:10:13;94024.78;;;20.86;75.85
6024;BME280;3040;42.654;23.296;2023-05-22T13:12:41;94020.63;;;21.08;71.65
6024;BME280;3040;42.654;23.296;2023-05-22T13:15:09;94016.63;;;21.43;71.97
6024;BME280;3040;42.654;23.296;2023-05-22T13:17:38;94005.31;;;21.72;69.84
6024;BME280;3040;42.654;23.296;2023-05-22T13:20:06;94010.69;;;21.99;67.98